sensor_id;sensor_type;location;lat;lon;timestamp;P1;durP1;ratioP1;P2;durP2;ratioP2
16760;SDS011;8498;52.516;13.790;2023-02-07T00:04:16;25.70;;;10.33;;
16760;SDS011;8498;52.516;13.790;2023-02-07T00:09:38;25.07;;;9.37;;
16760;SDS011;8498;52.516;13.790;2023-02-07T00:15:01;25.87;;;10.87;;
16760;SDS011;8498;52.516;13.790;2023-02-07T00:20:23;30.43;;;10.60;;
16760;SDS011;8498;52.516;13.790;2023-02-07T00:25:46;30.23;;;12.93;;
16760;SDS011;8498;52.516;13.790;2023-02-07T00:31:10;33.40;;;12.17;;
16760;SDS011;8498;52.516;13.790;2023-02-07T00:36:38;27.10;;;10.97;;
16760;SDS011;8498;52.516;13.790;2023-02-07T00:42:01;23.20;;;10.63;;
16760;SDS011;8498;52.516;13.790;2023-02-07T00:47:23;28.93;;;9.87;;
16760;SDS011;8498;52.516;13.790;2023-02-07T00:52:46;25.47;;;11.03;;
16760;SDS011;8498;52.516;13.790;2023-02-07T00:58:08;26.13;;;8.60;;
16760;SDS011;8498;52.516;13.790;2023-02-07T01:03:31;25.43;;;9.90;;
16760;SDS011;8498;52.516;13.790;2023-02-07T01:08:57;31.47;;;10.80;;
16760;SDS011;8498;52.516;13.790;2023-02-07T01:14:21;15.47;;;8.03;;
16760;SDS011;8498;52.516;13.790;2023-02-07T01:19:44;21.60;;;9.87;;
16760;SDS011;8498;52.516;13.790;2023-02-07T01:25:06;23.77;;;9.63;;
16760;SDS011;8498;52.516;13.790;2023-02-07T01:30:30;18.47;;;8.20;;
16760;SDS011;8498;52.516;13.790;2023-02-07T01:35:53;15.90;;;8.23;;
16760;SDS011;8498;52.516;13.790;2023-02-07T01:41:15;20.20;;;9.33;;
16760;SDS011;8498;52.516;13.790;2023-02-07T01:46:38;31.47;;;9.27;;
16760;SDS011;8498;52.516;13.790;2023-02-07T01:52:19;16.80;;;8.13;;
16760;SDS011;8498;52.516;13.790;2023-02-07T01:57:48;17.33;;;7.00;;
16760;SDS011;8498;52.516;13.790;2023-02-07T02:03:10;17.00;;;7.70;;
16760;SDS011;8498;52.516;13.790;2023-02-07T02:08:33;14.40;;;8.23;;
16760;SDS011;8498;52.516;13.790;2023-02-07T02:25:37;16.80;;;7.90;;
16760;SDS011;8498;52.516;13.790;2023-02-07T02:42:35;15.27;;;7.47;;
16760;SDS011;8498;52.516;13.790;2023-02-07T02:48:14;13.97;;;6.87;;
16760;SDS011;8498;52.516;13.790;2023-02-07T02:53:38;19.07;;;8.43;;
16760;SDS011;8498;52.516;13.790;2023-02-07T03:10:05;13.00;;;6.97;;
16760;SDS011;8498;52.516;13.790;2023-02-07T03:15:52;20.07;;;7.47;;
16760;SDS011;8498;52.516;13.790;2023-02-07T03:21:20;18.47;;;6.70;;
16760;SDS011;8498;52.516;13.790;2023-02-07T03:26:59;19.87;;;6.40;;
16760;SDS011;8498;52.516;13.790;2023-02-07T03:32:29;17.63;;;7.40;;
16760;SDS011;8498;52.516;13.790;2023-02-07T03:37:56;14.47;;;7.00;;
16760;SDS011;8498;52.516;13.790;2023-02-07T03:43:21;10.50;;;6.87;;
16760;SDS011;8498;52.516;13.790;2023-02-07T03:48:47;14.73;;;7.77;;
16760;SDS011;8498;52.516;13.790;2023-02-07T03:54:10;16.13;;;8.00;;
16760;SDS011;8498;52.516;13.790;2023-02-07T03:59:33;21.03;;;7.87;;
16760;SDS011;8498;52.516;13.790;2023-02-07T04:04:55;14.63;;;6.97;;
16760;SDS011;8498;52.516;13.790;2023-02-07T04:10:18;14.70;;;7.73;;
16760;SDS011;8498;52.516;13.790;2023-02-07T04:15:40;18.37;;;7.80;;
16760;SDS011;8498;52.516;13.790;2023-02-07T04:21:03;18.63;;;8.23;;
16760;SDS011;8498;52.516;13.790;2023-02-07T04:26:27;13.07;;;7.60;;
16760;SDS011;8498;52.516;13.790;2023-02-07T04:31:50;15.07;;;7.07;;
16760;SDS011;8498;52.516;13.790;2023-02-07T04:37:12;16.37;;;8.07;;
16760;SDS011;8498;52.516;13.790;2023-02-07T04:42:34;18.80;;;6.73;;
16760;SDS011;8498;52.516;13.790;2023-02-07T04:47:57;18.53;;;7.67;;
16760;SDS011;8498;52.516;13.790;2023-02-07T04:53:19;16.43;;;7.70;;
16760;SDS011;8498;52.516;13.790;2023-02-07T04:58:41;16.37;;;8.83;;
16760;SDS011;8498;52.516;13.790;2023-02-07T05:04:04;18.17;;;7.47;;
16760;SDS011;8498;52.516;13.790;2023-02-07T05:09:26;21.63;;;8.60;;
16760;SDS011;8498;52.516;13.790;2023-02-07T05:14:49;13.67;;;6.80;;
16760;SDS011;8498;52.516;13.790;2023-02-07T05:20:11;9.93;;;6.33;;
16760;SDS011;8498;52.516;13.790;2023-02-07T05:25:34;14.23;;;6.87;;
16760;SDS011;8498;52.516;13.790;2023-02-07T05:30:56;20.87;;;8.17;;
16760;SDS011;8498;52.516;13.790;2023-02-07T05:36:19;13.67;;;7.03;;
16760;SDS011;8498;52.516;13.790;2023-02-07T05:41:41;14.60;;;7.77;;
16760;SDS011;8498;52.516;13.790;2023-02-07T05:47:03;17.57;;;7.07;;
16760;SDS011;8498;52.516;13.790;2023-02-07T05:52:26;12.03;;;7.20;;
16760;SDS011;8498;52.516;13.790;2023-02-07T05:57:48;12.50;;;6.07;;
16760;SDS011;8498;52.516;13.790;2023-02-07T06:03:10;14.60;;;7.23;;
16760;SDS011;8498;52.516;13.790;2023-02-07T06:08:32;20.73;;;7.07;;
16760;SDS011;8498;52.516;13.790;2023-02-07T06:13:55;13.03;;;6.80;;
16760;SDS011;8498;52.516;13.790;2023-02-07T06:19:17;19.33;;;8.03;;
16760;SDS011;8498;52.516;13.790;2023-02-07T06:24:47;15.07;;;7.27;;
16760;SDS011;8498;52.516;13.790;2023-02-07T06:30:10;19.70;;;8.90;;
16760;SDS011;8498;52.516;13.790;2023-02-07T06:35:33;16.40;;;8.07;;
16760;SDS011;8498;52.516;13.790;2023-02-07T06:40:55;19.13;;;7.27;;
16760;SDS011;8498;52.516;13.790;2023-02-07T06:46:17;13.27;;;7.70;;
16760;SDS011;8498;52.516;13.790;2023-02-07T06:51:40;18.73;;;8.97;;
16760;SDS011;8498;52.516;13.790;2023-02-07T06:57:02;17.87;;;7.10;;
16760;SDS011;8498;52.516;13.790;2023-02-07T07:02:24;23.37;;;9.47;;
16760;SDS011;8498;52.516;13.790;2023-02-07T07:07:47;18.47;;;8.20;;
16760;SDS011;8498;52.516;13.790;2023-02-07T07:13:10;20.00;;;8.00;;
16760;SDS011;8498;52.516;13.790;2023-02-07T07:18:32;25.60;;;8.90;;
16760;SDS011;8498;52.516;13.790;2023-02-07T07:23:55;19.27;;;8.77;;
16760;SDS011;8498;52.516;13.790;2023-02-07T07:29:17;23.83;;;9.17;;
16760;SDS011;8498;52.516;13.790;2023-02-07T07:34:40;20.17;;;8.43;;
16760;SDS011;8498;52.516;13.790;2023-02-07T07:40:02;18.37;;;8.67;;
16760;SDS011;8498;52.516;13.790;2023-02-07T07:45:26;16.50;;;7.97;;
16760;SDS011;8498;52.516;13.790;2023-02-07T07:50:48;15.13;;;7.93;;
16760;SDS011;8498;52.516;13.790;2023-02-07T07:56:11;15.17;;;7.57;;
16760;SDS011;8498;52.516;13.790;2023-02-07T08:01:33;18.70;;;8.00;;
16760;SDS011;8498;52.516;13.790;2023-02-07T08:06:56;19.37;;;8.53;;
16760;SDS011;8498;52.516;13.790;2023-02-07T08:12:19;14.50;;;8.07;;
16760;SDS011;8498;52.516;13.790;2023-02-07T08:17:41;26.20;;;9.60;;
16760;SDS011;8498;52.516;13.790;2023-02-07T08:23:03;19.40;;;9.00;;
16760;SDS011;8498;52.516;13.790;2023-02-07T08:28:26;20.43;;;8.60;;
16760;SDS011;8498;52.516;13.790;2023-02-07T08:33:50;21.03;;;9.23;;
16760;SDS011;8498;52.516;13.790;2023-02-07T08:39:13;20.37;;;9.50;;
16760;SDS011;8498;52.516;13.790;2023-02-07T08:44:35;20.13;;;10.03;;
16760;SDS011;8498;52.516;13.790;2023-02-07T08:49:58;23.83;;;9.80;;
16760;SDS011;8498;52.516;13.790;2023-02-07T08:55:20;28.93;;;11.20;;
16760;SDS011;8498;52.516;13.790;2023-02-07T09:00:43;26.93;;;12.30;;
16760;SDS011;8498;52.516;13.790;2023-02-07T09:06:05;25.57;;;11.57;;
16760;SDS011;8498;52.516;13.790;2023-02-07T09:11:28;27.23;;;12.17;;
16760;SDS011;8498;52.516;13.790;2023-02-07T09:16:50;33.60;;;13.13;;
16760;SDS011;8498;52.516;13.790;2023-02-07T09:22:13;39.17;;;13.63;;
16760;SDS011;8498;52.516;13.790;2023-02-07T09:27:36;30.07;;;12.20;;
16760;SDS011;8498;52.516;13.790;2023-02-07T09:32:59;34.20;;;14.03;;
16760;SDS011;8498;52.516;13.790;2023-02-07T09:38:22;41.20;;;13.90;;
16760;SDS011;8498;52.516;13.790;2023-02-07T09:43:58;38.37;;;13.67;;
16760;SDS011;8498;52.516;13.790;2023-02-07T09:54:59;40.37;;;14.73;;
16760;SDS011;8498;52.516;13.790;2023-02-07T10:00:27;30.00;;;13.00;;
16760;SDS011;8498;52.516;13.790;2023-02-07T10:05:57;35.03;;;12.60;;
16760;SDS011;8498;52.516;13.790;2023-02-07T10:11:49;34.17;;;13.93;;
16760;SDS011;8498;52.516;13.790;2023-02-07T10:34:31;28.20;;;12.30;;
16760;SDS011;8498;52.516;13.790;2023-02-07T10:40:11;29.90;;;12.13;;
16760;SDS011;8498;52.516;13.790;2023-02-07T10:45:38;31.93;;;11.87;;
16760;SDS011;8498;52.516;13.790;2023-02-07T10:56:48;29.67;;;12.10;;
16760;SDS011;8498;52.516;13.790;2023-02-07T11:02:32;33.40;;;12.37;;
16760;SDS011;8498;52.516;13.790;2023-02-07T11:08:09;26.67;;;12.33;;
16760;SDS011;8498;52.516;13.790;2023-02-07T11:13:48;28.83;;;11.70;;
16760;SDS011;8498;52.516;13.790;2023-02-07T11:19:16;23.23;;;9.90;;
16760;SDS011;8498;52.516;13.790;2023-02-07T11:24:41;25.10;;;9.37;;
16760;SDS011;8498;52.516;13.790;2023-02-07T11:30:08;22.73;;;9.63;;
16760;SDS011;8498;52.516;13.790;2023-02-07T11:35:40;22.73;;;9.90;;
16760;SDS011;8498;52.516;13.790;2023-02-07T11:41:51;20.17;;;9.63;;
16760;SDS011;8498;52.516;13.790;2023-02-07T11:47:25;27.73;;;10.83;;
16760;SDS011;8498;52.516;13.790;2023-02-07T11:52:54;23.87;;;9.00;;
16760;SDS011;8498;52.516;13.790;2023-02-07T11:58:32;21.53;;;9.10;;
16760;SDS011;8498;52.516;13.790;2023-02-07T12:04:01;23.47;;;8.97;;
16760;SDS011;8498;52.516;13.790;2023-02-07T12:09:32;24.37;;;9.50;;
16760;SDS011;8498;52.516;13.790;2023-02-07T12:15:12;19.60;;;10.13;;
16760;SDS011;8498;52.516;13.790;2023-02-07T12:26:36;29.47;;;10.80;;
16760;SDS011;8498;52.516;13.790;2023-02-07T12:37:52;23.27;;;9.60;;
16760;SDS011;8498;52.516;13.790;2023-02-07T12:43:26;22.00;;;9.20;;
16760;SDS011;8498;52.516;13.790;2023-02-07T12:49:12;19.77;;;8.97;;
16760;SDS011;8498;52.516;13.790;2023-02-07T13:11:37;17.40;;;8.03;;
16760;SDS011;8498;52.516;13.790;2023-02-07T13:34:18;17.33;;;8.43;;
16760;SDS011;8498;52.516;13.790;2023-02-07T13:39:54;21.57;;;8.60;;
16760;SDS011;8498;52.516;13.790;2023-02-07T13:45:28;20.03;;;10.03;;
16760;SDS011;8498;52.516;13.790;2023-02-07T13:51:23;19.60;;;9.20;;
16760;SDS011;8498;52.516;13.790;2023-02-07T13:57:13;22.47;;;10.27;;
16760;SDS011;8498;52.516;13.790;2023-02-07T14:03:21;22.83;;;10.33;;
16760;SDS011;8498;52.516;13.790;2023-02-07T14:08:58;22.03;;;9.80;;
16760;SDS011;8498;52.516;13.790;2023-02-07T14:14:32;27.53;;;11.70;;
16760;SDS011;8498;52.516;13.790;2023-02-07T14:19:57;33.63;;;12.00;;
16760;SDS011;8498;52.516;13.790;2023-02-07T14:31:11;29.57;;;11.17;;
16760;SDS011;8498;52.516;13.790;2023-02-07T14:36:45;24.60;;;10.63;;
16760;SDS011;8498;52.516;13.790;2023-02-07T14:42:10;30.83;;;13.33;;
16760;SDS011;8498;52.516;13.790;2023-02-07T14:47:38;25.43;;;12.10;;
16760;SDS011;8498;52.516;13.790;2023-02-07T14:53:01;32.53;;;12.87;;
16760;SDS011;8498;52.516;13.790;2023-02-07T14:58:31;29.57;;;11.73;;
16760;SDS011;8498;52.516;13.790;2023-02-07T15:04:01;25.43;;;11.20;;
16760;SDS011;8498;52.516;13.790;2023-02-07T15:09:33;28.00;;;11.53;;
16760;SDS011;8498;52.516;13.790;2023-02-07T15:14:55;29.37;;;11.50;;
16760;SDS011;8498;52.516;13.790;2023-02-07T15:20:19;23.00;;;10.67;;
16760;SDS011;8498;52.516;13.790;2023-02-07T15:25:46;25.03;;;10.60;;
16760;SDS011;8498;52.516;13.790;2023-02-07T15:31:14;23.53;;;10.83;;
16760;SDS011;8498;52.516;13.790;2023-02-07T15:36:39;27.63;;;11.00;;
16760;SDS011;8498;52.516;13.790;2023-02-07T15:42:04;28.53;;;11.73;;
16760;SDS011;8498;52.516;13.790;2023-02-07T15:52:49;25.70;;;10.87;;
16760;SDS011;8498;52.516;13.790;2023-02-07T15:58:22;29.67;;;10.67;;
16760;SDS011;8498;52.516;13.790;2023-02-07T16:03:50;29.37;;;11.33;;
16760;SDS011;8498;52.516;13.790;2023-02-07T16:09:32;23.47;;;9.53;;
16760;SDS011;8498;52.516;13.790;2023-02-07T16:14:56;22.70;;;10.13;;
16760;SDS011;8498;52.516;13.790;2023-02-07T16:20:20;25.60;;;10.93;;
16760;SDS011;8498;52.516;13.790;2023-02-07T16:25:44;28.03;;;11.83;;
16760;SDS011;8498;52.516;13.790;2023-02-07T16:31:06;26.60;;;11.47;;
16760;SDS011;8498;52.516;13.790;2023-02-07T16:36:29;28.67;;;11.17;;
16760;SDS011;8498;52.516;13.790;2023-02-07T16:41:55;25.37;;;11.03;;
16760;SDS011;8498;52.516;13.790;2023-02-07T16:47:26;23.73;;;11.47;;
16760;SDS011;8498;52.516;13.790;2023-02-07T16:52:49;29.67;;;11.37;;
16760;SDS011;8498;52.516;13.790;2023-02-07T16:58:16;29.37;;;11.83;;
16760;SDS011;8498;52.516;13.790;2023-02-07T17:03:45;22.93;;;10.90;;
16760;SDS011;8498;52.516;13.790;2023-02-07T17:09:14;27.03;;;11.80;;
16760;SDS011;8498;52.516;13.790;2023-02-07T17:14:39;29.27;;;11.07;;
16760;SDS011;8498;52.516;13.790;2023-02-07T17:20:01;33.97;;;11.90;;
16760;SDS011;8498;52.516;13.790;2023-02-07T17:25:26;29.20;;;11.97;;
16760;SDS011;8498;52.516;13.790;2023-02-07T17:30:50;47.00;;;18.47;;
16760;SDS011;8498;52.516;13.790;2023-02-07T17:36:13;51.83;;;19.13;;
16760;SDS011;8498;52.516;13.790;2023-02-07T17:41:37;35.77;;;15.43;;
16760;SDS011;8498;52.516;13.790;2023-02-07T17:47:00;45.03;;;16.73;;
16760;SDS011;8498;52.516;13.790;2023-02-07T17:52:22;38.63;;;15.77;;
16760;SDS011;8498;52.516;13.790;2023-02-07T17:57:48;43.43;;;18.10;;
16760;SDS011;8498;52.516;13.790;2023-02-07T18:03:11;38.27;;;14.90;;
16760;SDS011;8498;52.516;13.790;2023-02-07T18:08:33;32.13;;;13.53;;
16760;SDS011;8498;52.516;13.790;2023-02-07T18:13:55;27.97;;;12.80;;
16760;SDS011;8498;52.516;13.790;2023-02-07T18:19:18;29.43;;;12.50;;
16760;SDS011;8498;52.516;13.790;2023-02-07T18:24:40;25.33;;;11.03;;
16760;SDS011;8498;52.516;13.790;2023-02-07T18:30:03;32.00;;;11.43;;
16760;SDS011;8498;52.516;13.790;2023-02-07T18:35:26;30.53;;;10.70;;
16760;SDS011;8498;52.516;13.790;2023-02-07T18:40:49;27.70;;;9.90;;
16760;SDS011;8498;52.516;13.790;2023-02-07T18:46:13;42.17;;;14.90;;
16760;SDS011;8498;52.516;13.790;2023-02-07T18:51:38;40.90;;;14.97;;
16760;SDS011;8498;52.516;13.790;2023-02-07T18:57:01;37.30;;;15.07;;
16760;SDS011;8498;52.516;13.790;2023-02-07T19:02:23;37.40;;;15.10;;
16760;SDS011;8498;52.516;13.790;2023-02-07T19:07:46;27.83;;;12.33;;
16760;SDS011;8498;52.516;13.790;2023-02-07T19:13:09;29.67;;;12.93;;
16760;SDS011;8498;52.516;13.790;2023-02-07T19:18:33;30.77;;;13.37;;
16760;SDS011;8498;52.516;13.790;2023-02-07T19:23:56;34.50;;;14.07;;
16760;SDS011;8498;52.516;13.790;2023-02-07T19:29:20;37.70;;;14.20;;
16760;SDS011;8498;52.516;13.790;2023-02-07T19:34:49;36.27;;;13.23;;
16760;SDS011;8498;52.516;13.790;2023-02-07T19:40:11;33.13;;;13.37;;
16760;SDS011;8498;52.516;13.790;2023-02-07T19:45:33;37.80;;;14.87;;
16760;SDS011;8498;52.516;13.790;2023-02-07T19:50:59;37.23;;;15.33;;
16760;SDS011;8498;52.516;13.790;2023-02-07T19:56:27;40.60;;;15.07;;
16760;SDS011;8498;52.516;13.790;2023-02-07T20:01:54;35.20;;;15.13;;
16760;SDS011;8498;52.516;13.790;2023-02-07T20:07:16;37.43;;;16.93;;
16760;SDS011;8498;52.516;13.790;2023-02-07T20:12:39;37.33;;;15.20;;
16760;SDS011;8498;52.516;13.790;2023-02-07T20:18:01;34.37;;;14.53;;
16760;SDS011;8498;52.516;13.790;2023-02-07T20:23:24;41.57;;;14.47;;
16760;SDS011;8498;52.516;13.790;2023-02-07T20:28:47;38.43;;;16.40;;
16760;SDS011;8498;52.516;13.790;2023-02-07T20:34:11;36.00;;;15.00;;
16760;SDS011;8498;52.516;13.790;2023-02-07T20:39:34;42.93;;;15.33;;
16760;SDS011;8498;52.516;13.790;2023-02-07T20:44:57;43.03;;;16.00;;
16760;SDS011;8498;52.516;13.790;2023-02-07T20:50:20;42.73;;;16.20;;
16760;SDS011;8498;52.516;13.790;2023-02-07T20:55:42;50.67;;;17.33;;
16760;SDS011;8498;52.516;13.790;2023-02-07T21:01:05;46.80;;;17.83;;
16760;SDS011;8498;52.516;13.790;2023-02-07T21:06:32;44.83;;;17.50;;
16760;SDS011;8498;52.516;13.790;2023-02-07T21:11:55;43.50;;;16.50;;
16760;SDS011;8498;52.516;13.790;2023-02-07T21:17:18;40.50;;;17.57;;
16760;SDS011;8498;52.516;13.790;2023-02-07T21:22:41;39.77;;;17.00;;
16760;SDS011;8498;52.516;13.790;2023-02-07T21:28:03;48.17;;;18.60;;
16760;SDS011;8498;52.516;13.790;2023-02-07T21:33:26;41.60;;;16.33;;
16760;SDS011;8498;52.516;13.790;2023-02-07T21:38:49;41.30;;;15.27;;
16760;SDS011;8498;52.516;13.790;2023-02-07T21:44:13;36.40;;;15.63;;
16760;SDS011;8498;52.516;13.790;2023-02-07T21:49:36;43.47;;;16.27;;
16760;SDS011;8498;52.516;13.790;2023-02-07T21:54:59;31.60;;;13.23;;
16760;SDS011;8498;52.516;13.790;2023-02-07T22:00:21;29.07;;;12.20;;
16760;SDS011;8498;52.516;13.790;2023-02-07T22:05:44;36.00;;;13.70;;
16760;SDS011;8498;52.516;13.790;2023-02-07T22:11:08;31.33;;;12.60;;
16760;SDS011;8498;52.516;13.790;2023-02-07T22:16:32;34.43;;;13.73;;
16760;SDS011;8498;52.516;13.790;2023-02-07T22:21:55;25.73;;;12.00;;
16760;SDS011;8498;52.516;13.790;2023-02-07T22:27:20;28.70;;;11.03;;
16760;SDS011;8498;52.516;13.790;2023-02-07T22:32:42;27.57;;;11.20;;
16760;SDS011;8498;52.516;13.790;2023-02-07T22:38:04;28.47;;;10.10;;
16760;SDS011;8498;52.516;13.790;2023-02-07T22:43:27;27.03;;;11.13;;
16760;SDS011;8498;52.516;13.790;2023-02-07T22:48:49;32.80;;;12.67;;
16760;SDS011;8498;52.516;13.790;2023-02-07T22:54:15;34.13;;;11.80;;
16760;SDS011;8498;52.516;13.790;2023-02-07T22:59:38;23.60;;;10.20;;
16760;SDS011;8498;52.516;13.790;2023-02-07T23:05:02;28.13;;;11.07;;
16760;SDS011;8498;52.516;13.790;2023-02-07T23:10:24;28.23;;;10.87;;
16760;SDS011;8498;52.516;13.790;2023-02-07T23:15:47;26.67;;;10.77;;
16760;SDS011;8498;52.516;13.790;2023-02-07T23:21:10;25.50;;;10.37;;
16760;SDS011;8498;52.516;13.790;2023-02-07T23:26:34;21.03;;;9.37;;
16760;SDS011;8498;52.516;13.790;2023-02-07T23:31:57;25.80;;;10.20;;
16760;SDS011;8498;52.516;13.790;2023-02-07T23:37:19;25.03;;;10.77;;
16760;SDS011;8498;52.516;13.790;2023-02-07T23:42:43;30.93;;;11.00;;
16760;SDS011;8498;52.516;13.790;2023-02-07T23:48:05;24.77;;;9.77;;
16760;SDS011;8498;52.516;13.790;2023-02-07T23:53:28;22.93;;;10.50;;
16760;SDS011;8498;52.516;13.790;2023-02-07T23:58:50;24.70;;;10.47;;
